ACM194 LIRU-LIRU

Flight info

Callsign ACM194
Flight time 0h 8m
Altitude 2000
Route CIRCUIT PATTERN
Aircraft C172/L-SDFG/S

Departure

Time 2026-05-07 19:32
Airport Rome Urbe Airport (LIRU)

Arrival

Time 2026-05-07 19:40
Airport Rome Urbe Airport (LIRU)
Time Latitude Longitude Altitude Speed Heading
2026-05-07 19:08 41.95639 12.50425 58 ft 0 kts 89°
2026-05-07 19:23 41.95638 12.50402 58 ft 6 kts 260°
2026-05-07 19:24 41.95605 12.50373 58 ft 7 kts 191°
2026-05-07 19:24 41.95547 12.50357 58 ft 10 kts 191°
2026-05-07 19:24 41.95476 12.50337 58 ft 12 kts 191°
2026-05-07 19:24 41.95398 12.50317 58 ft 11 kts 189°
2026-05-07 19:25 41.95330 12.50298 58 ft 9 kts 193°
2026-05-07 19:25 41.95275 12.50314 57 ft 8 kts 159°
2026-05-07 19:25 41.95230 12.50336 55 ft 6 kts 160°
2026-05-07 19:25 41.95185 12.50358 58 ft 8 kts 160°
2026-05-07 19:26 41.95130 12.50385 58 ft 9 kts 160°
2026-05-07 19:26 41.95066 12.50417 58 ft 11 kts 159°
2026-05-07 19:26 41.94989 12.50456 58 ft 12 kts 159°
2026-05-07 19:26 41.94915 12.50486 57 ft 10 kts 172°
2026-05-07 19:27 41.94850 12.50496 56 ft 8 kts 180°
2026-05-07 19:27 41.94845 12.50496 57 ft 0 kts 185°
2026-05-07 19:29 41.94823 12.50481 56 ft 8 kts 240°
2026-05-07 19:29 41.94812 12.50442 60 ft 1 kts 268°
2026-05-07 19:29 41.94816 12.50427 60 ft 5 kts 313°
2026-05-07 19:29 41.94855 12.50408 60 ft 0 kts 339°
2026-05-07 19:30 41.94906 12.50383 60 ft 31 kts 340°
2026-05-07 19:30 41.95271 12.50206 92 ft 73 kts 339°
2026-05-07 19:31 41.95766 12.49960 241 ft 77 kts 339°
2026-05-07 19:31 41.96264 12.49699 395 ft 78 kts 336°
2026-05-07 19:31 41.96787 12.49382 501 ft 85 kts 325°
2026-05-07 19:31 41.96995 12.48695 585 ft 84 kts 257°
2026-05-07 19:32 41.96783 12.47963 654 ft 83 kts 246°
2026-05-07 19:32 41.96438 12.47391 740 ft 80 kts 194°
2026-05-07 19:32 41.95909 12.47566 805 ft 80 kts 159°
2026-05-07 19:32 41.95395 12.47833 895 ft 77 kts 158°
2026-05-07 19:33 41.94884 12.48102 926 ft 80 kts 157°
2026-05-07 19:33 41.94381 12.48395 953 ft 79 kts 157°
2026-05-07 19:33 41.93867 12.48675 975 ft 80 kts 158°
2026-05-07 19:33 41.93340 12.48945 993 ft 82 kts 157°
2026-05-07 19:34 41.92963 12.49514 918 ft 87 kts 108°
2026-05-07 19:34 41.92996 12.50297 829 ft 85 kts 68°
2026-05-07 19:34 41.93287 12.50953 748 ft 80 kts 31°
2026-05-07 19:34 41.93810 12.50917 586 ft 78 kts 337°
2026-05-07 19:35 41.94316 12.50664 387 ft 76 kts 342°
2026-05-07 19:35 41.94804 12.50433 163 ft 74 kts 340°
2026-05-07 19:35 41.95253 12.50216 60 ft 60 kts 341°
2026-05-07 19:35 41.95661 12.50021 104 ft 71 kts 341°
2026-05-07 19:36 41.96151 12.49804 273 ft 77 kts 338°
2026-05-07 19:36 41.96659 12.49548 426 ft 79 kts 338°
2026-05-07 19:36 41.97193 12.49481 560 ft 80 kts 26°
2026-05-07 19:36 41.97508 12.50088 659 ft 82 kts 66°
2026-05-07 19:37 41.97695 12.50816 761 ft 83 kts 91°
2026-05-07 19:37 41.97380 12.51429 814 ft 86 kts 156°
2026-05-07 19:37 41.96831 12.51700 909 ft 85 kts 158°
2026-05-07 19:37 41.96272 12.52005 970 ft 89 kts 158°
2026-05-07 19:38 41.95697 12.52293 968 ft 86 kts 161°
2026-05-07 19:38 41.95146 12.52530 929 ft 82 kts 165°
2026-05-07 19:38 41.94608 12.52733 873 ft 79 kts 164°
2026-05-07 19:38 41.94074 12.52870 798 ft 77 kts 184°
2026-05-07 19:39 41.93633 12.52511 711 ft 77 kts 239°
2026-05-07 19:39 41.93448 12.51850 652 ft 72 kts 252°
2026-05-07 19:39 41.93446 12.51407 605 ft 76 kts 288°
2026-05-07 19:39 41.93799 12.50873 475 ft 78 kts 333°
2026-05-07 19:40 41.94471 12.50569 237 ft 73 kts 345°
2026-05-07 19:40 41.94926 12.50372 87 ft 64 kts 341°
2026-05-07 19:40 41.95287 12.50198 59 ft 47 kts 339°
2026-05-07 19:40 41.95693 12.50003 125 ft 72 kts 339°
2026-05-07 19:41 41.96190 12.49766 274 ft 80 kts 338°
2026-05-07 19:41 41.96535 12.49573 380 ft 82 kts 336°
2026-05-07 19:41 41.97085 12.49258 501 ft 94 kts 338°
2026-05-07 19:41 41.97730 12.49044 625 ft 94 kts 357°
2026-05-07 19:42 41.98372 12.49141 647 ft 88 kts 10°
2026-05-07 19:42 41.99067 12.49413 743 ft 73 kts 25°
2026-05-07 19:42 41.99494 12.49724 813 ft 65 kts 25°
2026-05-07 19:42 41.99760 12.49935 835 ft 67 kts 36°
2026-05-07 19:43 42.00121 12.50296 884 ft 69 kts 36°
2026-05-07 19:43 42.00510 12.50731 991 ft 76 kts 39°
2026-05-07 19:43 42.00938 12.51206 1126 ft 84 kts 39°
2026-05-07 19:43 42.01417 12.51701 1248 ft 90 kts 35°
2026-05-07 19:44 42.01940 12.52203 1359 ft 93 kts 36°
2026-05-07 19:44 42.02462 12.52723 1466 ft 94 kts 36°
2026-05-07 19:44 42.02991 12.53247 1523 ft 95 kts 36°
2026-05-07 19:44 42.03521 12.53760 1514 ft 94 kts 35°
2026-05-07 19:45 42.04053 12.54254 1516 ft 91 kts 34°
2026-05-07 19:45 42.04556 12.54715 1565 ft 85 kts 36°
2026-05-07 19:45 42.05015 12.55200 1607 ft 85 kts 39°
2026-05-07 19:45 42.05469 12.55724 1651 ft 89 kts 39°
2026-05-07 19:46 42.05954 12.56274 1614 ft 94 kts 41°
2026-05-07 19:46 42.06401 12.56916 1579 ft 94 kts 62°
2026-05-07 19:46 42.06396 12.57743 1550 ft 93 kts 117°
2026-05-07 19:46 42.06044 12.58476 1513 ft 92 kts 121°
2026-05-07 19:47 42.05772 12.59245 1491 ft 90 kts 111°
2026-05-07 19:47 42.05548 12.60024 1489 ft 90 kts 111°
2026-05-07 19:47 42.05303 12.60809 1464 ft 94 kts 114°
2026-05-07 19:47 42.05036 12.61594 1481 ft 91 kts 114°
2026-05-07 19:48 42.04771 12.62379 1508 ft 94 kts 114°
2026-05-07 19:48 42.04478 12.63187 1512 ft 99 kts 116°
2026-05-07 19:48 42.04050 12.63881 1513 ft 98 kts 154°
2026-05-07 19:48 42.03391 12.63867 1431 ft 97 kts 205°
2026-05-07 19:49 42.02986 12.63190 1331 ft 98 kts 258°
2026-05-07 19:49 42.03150 12.62348 1292 ft 94 kts 303°
2026-05-07 19:49 42.03501 12.61651 1369 ft 86 kts 304°
2026-05-07 19:49 42.03827 12.60997 1469 ft 86 kts 303°
2026-05-07 19:50 42.04150 12.60305 1542 ft 90 kts 301°
2026-05-07 19:50 42.04477 12.59548 1578 ft 96 kts 298°
2026-05-07 19:50 42.04793 12.58734 1616 ft 99 kts 296°
2026-05-07 19:50 42.05093 12.57900 1615 ft 99 kts 295°
2026-05-07 19:51 42.05251 12.57022 1608 ft 96 kts 268°
2026-05-07 19:51 42.05068 12.56170 1581 ft 95 kts 243°
2026-05-07 19:51 42.04739 12.55400 1556 ft 94 kts 235°
2026-05-07 19:51 42.04310 12.54730 1522 ft 95 kts 224°
2026-05-07 19:52 42.03817 12.54131 1480 ft 96 kts 220°
2026-05-07 19:52 42.03319 12.53556 1445 ft 95 kts 221°
2026-05-07 19:52 42.02816 12.53003 1448 ft 92 kts 218°
2026-05-07 19:52 42.02311 12.52476 1436 ft 92 kts 217°
2026-05-07 19:53 42.01800 12.51963 1440 ft 91 kts 216°
2026-05-07 19:53 42.01285 12.51470 1436 ft 91 kts 215°
2026-05-07 19:53 42.00766 12.50992 1443 ft 90 kts 214°
2026-05-07 19:53 42.00238 12.50519 1409 ft 92 kts 211°
2026-05-07 19:54 41.99670 12.50212 1292 ft 86 kts 191°
2026-05-07 19:54 41.99083 12.50193 1164 ft 83 kts 171°
2026-05-07 19:54 41.98554 12.50408 1065 ft 77 kts 160°
2026-05-07 19:54 41.98062 12.50632 993 ft 74 kts 162°
2026-05-07 19:55 41.97567 12.50849 956 ft 76 kts 157°
2026-05-07 19:55 41.97066 12.51124 935 ft 80 kts 158°
2026-05-07 19:55 41.96525 12.51386 914 ft 85 kts 161°
2026-05-07 19:55 41.95977 12.51655 891 ft 83 kts 160°
2026-05-07 19:56 41.95436 12.51920 873 ft 82 kts 160°
2026-05-07 19:56 41.94898 12.52169 833 ft 83 kts 161°
2026-05-07 19:56 41.94344 12.52406 739 ft 86 kts 163°
2026-05-07 19:56 41.93773 12.52574 656 ft 82 kts 180°
2026-05-07 19:57 41.93296 12.52219 566 ft 82 kts 234°
2026-05-07 19:57 41.93072 12.51559 564 ft 73 kts 266°
2026-05-07 19:57 41.93343 12.51034 476 ft 79 kts 343°
2026-05-07 19:57 41.93898 12.50858 346 ft 79 kts 346°
2026-05-07 19:58 41.94358 12.50650 236 ft 65 kts 339°
2026-05-07 19:58 41.94761 12.50452 120 ft 57 kts 340°
2026-05-07 19:58 41.95094 12.50293 57 ft 45 kts 341°
2026-05-07 19:58 41.95504 12.50091 112 ft 74 kts 339°
2026-05-07 19:59 41.96008 12.49838 263 ft 79 kts 338°
2026-05-07 19:59 41.96508 12.49560 400 ft 79 kts 336°
2026-05-07 19:59 41.96987 12.49144 522 ft 85 kts 303°
2026-05-07 19:59 41.96991 12.48367 597 ft 90 kts 250°
2026-05-07 20:00 41.96749 12.47589 680 ft 87 kts 234°
2026-05-07 20:00 41.96234 12.47344 745 ft 83 kts 162°
2026-05-07 20:00 41.95680 12.47616 801 ft 85 kts 158°
2026-05-07 20:00 41.95145 12.47921 889 ft 87 kts 155°
2026-05-07 20:01 41.94582 12.48271 911 ft 89 kts 154°
2026-05-07 20:01 41.94039 12.48625 911 ft 85 kts 154°
2026-05-07 20:01 41.93483 12.48978 828 ft 90 kts 156°
2026-05-07 20:01 41.92930 12.49342 747 ft 87 kts 140°
2026-05-07 20:02 41.92734 12.50066 628 ft 87 kts 78°
2026-05-07 20:02 41.92954 12.50789 545 ft 81 kts 64°
2026-05-07 20:02 41.93388 12.51153 454 ft 78 kts 352°
2026-05-07 20:02 41.93890 12.50882 354 ft 76 kts 340°
2026-05-07 20:03 41.94368 12.50649 243 ft 73 kts 340°
2026-05-07 20:03 41.94825 12.50422 105 ft 67 kts 340°
2026-05-07 20:03 41.95225 12.50232 59 ft 51 kts 341°
2026-05-07 20:03 41.95432 12.50131 58 ft 20 kts 341°
2026-05-07 20:04 41.95553 12.50072 56 ft 17 kts 341°
2026-05-07 20:04 41.95644 12.50036 56 ft 12 kts 358°
2026-05-07 20:04 41.95717 12.50075 57 ft 10 kts 32°
2026-05-07 20:04 41.95758 12.50145 52 ft 9 kts 66°
2026-05-07 20:05 41.95766 12.50218 58 ft 7 kts 96°
2026-05-07 20:05 41.95754 12.50280 58 ft 6 kts 112°
2026-05-07 20:05 41.95731 12.50326 58 ft 6 kts 135°
2026-05-07 20:05 41.95700 12.50357 58 ft 6 kts 150°
2026-05-07 20:06 41.95665 12.50382 55 ft 6 kts 132°
2026-05-07 20:06 41.95661 12.50428 58 ft 0 kts 89°